sensor_id;sensor_type;location;lat;lon;timestamp;pressure;altitude;pressure_sealevel;temperature
34310;BMP280;61664;48.112;11.662;2023-06-14T00:01:48;95059.00;;;20.22
34310;BMP280;61664;48.112;11.662;2023-06-14T00:04:15;95078.56;;;20.29
34310;BMP280;61664;48.112;11.662;2023-06-14T00:06:47;95063.81;;;20.16
34310;BMP280;61664;48.112;11.662;2023-06-14T00:09:17;95071.41;;;20.10
34310;BMP280;61664;48.112;11.662;2023-06-14T00:11:44;95072.47;;;20.07
34310;BMP280;61664;48.112;11.662;2023-06-14T00:14:11;95069.75;;;20.07
34310;BMP280;61664;48.112;11.662;2023-06-14T00:16:40;95077.50;;;20.03
34310;BMP280;61664;48.112;11.662;2023-06-14T00:19:09;95074.91;;;19.98
34310;BMP280;61664;48.112;11.662;2023-06-14T00:24:05;95055.28;;;19.84
34310;BMP280;61664;48.112;11.662;2023-06-14T00:26:32;95061.06;;;19.80
34310;BMP280;61664;48.112;11.662;2023-06-14T00:28:59;95061.78;;;19.81
34310;BMP280;61664;48.112;11.662;2023-06-14T00:31:26;95057.34;;;19.70
34310;BMP280;61664;48.112;11.662;2023-06-14T00:33:54;95059.25;;;19.62
34310;BMP280;61664;48.112;11.662;2023-06-14T00:36:21;95063.53;;;19.58
34310;BMP280;61664;48.112;11.662;2023-06-14T00:38:47;95073.47;;;19.55
34310;BMP280;61664;48.112;11.662;2023-06-14T00:41:14;95074.81;;;19.48
34310;BMP280;61664;48.112;11.662;2023-06-14T00:43:41;95059.53;;;19.38
34310;BMP280;61664;48.112;11.662;2023-06-14T00:46:08;95066.94;;;19.37
34310;BMP280;61664;48.112;11.662;2023-06-14T00:48:37;95063.13;;;19.33
34310;BMP280;61664;48.112;11.662;2023-06-14T00:51:04;95058.66;;;19.22
34310;BMP280;61664;48.112;11.662;2023-06-14T00:53:32;95061.91;;;19.21
34310;BMP280;61664;48.112;11.662;2023-06-14T00:56:03;95046.53;;;19.02
34310;BMP280;61664;48.112;11.662;2023-06-14T00:58:31;95052.66;;;19.03
34310;BMP280;61664;48.112;11.662;2023-06-14T01:00:59;95064.31;;;19.11
34310;BMP280;61664;48.112;11.662;2023-06-14T01:03:26;95060.28;;;19.04
34310;BMP280;61664;48.112;11.662;2023-06-14T01:06:30;95059.34;;;19.02
34310;BMP280;61664;48.112;11.662;2023-06-14T01:09:35;95063.50;;;19.03
34310;BMP280;61664;48.112;11.662;2023-06-14T01:15:09;95064.56;;;19.00
34310;BMP280;61664;48.112;11.662;2023-06-14T01:17:37;95057.91;;;18.88
34310;BMP280;61664;48.112;11.662;2023-06-14T01:20:12;95061.75;;;18.92
34310;BMP280;61664;48.112;11.662;2023-06-14T01:22:52;95054.59;;;18.82
34310;BMP280;61664;48.112;11.662;2023-06-14T01:25:20;95056.03;;;18.83
34310;BMP280;61664;48.112;11.662;2023-06-14T01:28:05;95052.72;;;18.77
34310;BMP280;61664;48.112;11.662;2023-06-14T01:30:47;95056.66;;;18.76
34310;BMP280;61664;48.112;11.662;2023-06-14T01:33:20;95051.56;;;18.72
34310;BMP280;61664;48.112;11.662;2023-06-14T01:35:52;95054.28;;;18.72
34310;BMP280;61664;48.112;11.662;2023-06-14T01:38:25;95045.34;;;18.64
34310;BMP280;61664;48.112;11.662;2023-06-14T01:40:56;95041.78;;;18.56
34310;BMP280;61664;48.112;11.662;2023-06-14T01:43:25;95039.06;;;18.56
34310;BMP280;61664;48.112;11.662;2023-06-14T01:45:54;95042.94;;;18.60
34310;BMP280;61664;48.112;11.662;2023-06-14T01:48:23;95035.47;;;18.53
34310;BMP280;61664;48.112;11.662;2023-06-14T01:50:52;95042.31;;;18.54
34310;BMP280;61664;48.112;11.662;2023-06-14T01:53:19;95043.34;;;18.51
34310;BMP280;61664;48.112;11.662;2023-06-14T01:55:46;95049.78;;;18.48
34310;BMP280;61664;48.112;11.662;2023-06-14T01:58:16;95037.94;;;18.38
34310;BMP280;61664;48.112;11.662;2023-06-14T02:00:45;95034.72;;;18.26
34310;BMP280;61664;48.112;11.662;2023-06-14T02:03:14;95036.47;;;18.24
34310;BMP280;61664;48.112;11.662;2023-06-14T02:05:42;95044.06;;;18.25
34310;BMP280;61664;48.112;11.662;2023-06-14T02:08:09;95037.94;;;18.12
34310;BMP280;61664;48.112;11.662;2023-06-14T02:10:36;95044.25;;;18.14
34310;BMP280;61664;48.112;11.662;2023-06-14T02:13:03;95046.03;;;18.12
34310;BMP280;61664;48.112;11.662;2023-06-14T02:15:30;95045.00;;;18.15
34310;BMP280;61664;48.112;11.662;2023-06-14T02:18:04;95040.63;;;18.12
34310;BMP280;61664;48.112;11.662;2023-06-14T02:20:31;95042.69;;;18.06
34310;BMP280;61664;48.112;11.662;2023-06-14T02:22:58;95040.81;;;18.01
34310;BMP280;61664;48.112;11.662;2023-06-14T02:25:25;95039.78;;;18.04
34310;BMP280;61664;48.112;11.662;2023-06-14T02:27:55;95031.22;;;18.00
34310;BMP280;61664;48.112;11.662;2023-06-14T02:30:22;95045.19;;;18.04
34310;BMP280;61664;48.112;11.662;2023-06-14T02:32:49;95033.53;;;17.95
34310;BMP280;61664;48.112;11.662;2023-06-14T02:35:18;95034.34;;;17.90
34310;BMP280;61664;48.112;11.662;2023-06-14T02:37:47;95023.94;;;17.81
34310;BMP280;61664;48.112;11.662;2023-06-14T02:40:14;95038.69;;;17.80
34310;BMP280;61664;48.112;11.662;2023-06-14T02:42:41;95033.47;;;17.69
34310;BMP280;61664;48.112;11.662;2023-06-14T02:45:08;95039.06;;;17.71
34310;BMP280;61664;48.112;11.662;2023-06-14T02:47:36;95041.16;;;17.78
34310;BMP280;61664;48.112;11.662;2023-06-14T02:50:03;95042.91;;;17.76
34310;BMP280;61664;48.112;11.662;2023-06-14T02:52:31;95040.94;;;17.76
34310;BMP280;61664;48.112;11.662;2023-06-14T02:55:00;95027.31;;;17.69
34310;BMP280;61664;48.112;11.662;2023-06-14T02:57:27;95046.44;;;17.71
34310;BMP280;61664;48.112;11.662;2023-06-14T02:59:54;95039.16;;;17.66
34310;BMP280;61664;48.112;11.662;2023-06-14T03:02:21;95040.47;;;17.59
34310;BMP280;61664;48.112;11.662;2023-06-14T03:04:47;95055.66;;;17.62
34310;BMP280;61664;48.112;11.662;2023-06-14T03:07:14;95052.53;;;17.58
34310;BMP280;61664;48.112;11.662;2023-06-14T03:09:49;95056.34;;;17.49
34310;BMP280;61664;48.112;11.662;2023-06-14T03:12:16;95052.03;;;17.41
34310;BMP280;61664;48.112;11.662;2023-06-14T03:14:43;95062.13;;;17.40
34310;BMP280;61664;48.112;11.662;2023-06-14T03:17:13;95057.00;;;17.37
34310;BMP280;61664;48.112;11.662;2023-06-14T03:19:40;95063.06;;;17.43
34310;BMP280;61664;48.112;11.662;2023-06-14T03:22:08;95054.59;;;17.33
34310;BMP280;61664;48.112;11.662;2023-06-14T03:24:35;95064.09;;;17.40
34310;BMP280;61664;48.112;11.662;2023-06-14T03:27:05;95067.75;;;17.42
34310;BMP280;61664;48.112;11.662;2023-06-14T03:29:32;95066.56;;;17.38
34310;BMP280;61664;48.112;11.662;2023-06-14T03:32:02;95075.25;;;17.31
34310;BMP280;61664;48.112;11.662;2023-06-14T03:34:29;95069.72;;;17.23
34310;BMP280;61664;48.112;11.662;2023-06-14T03:36:56;95078.47;;;17.29
34310;BMP280;61664;48.112;11.662;2023-06-14T03:39:23;95076.06;;;17.26
34310;BMP280;61664;48.112;11.662;2023-06-14T03:41:49;95063.34;;;17.20
34310;BMP280;61664;48.112;11.662;2023-06-14T03:44:18;95069.72;;;17.23
34310;BMP280;61664;48.112;11.662;2023-06-14T03:46:46;95079.47;;;17.26
34310;BMP280;61664;48.112;11.662;2023-06-14T03:49:13;95070.88;;;17.28
34310;BMP280;61664;48.112;11.662;2023-06-14T03:51:40;95067.16;;;17.31
34310;BMP280;61664;48.112;11.662;2023-06-14T03:54:07;95066.19;;;17.28
34310;BMP280;61664;48.112;11.662;2023-06-14T03:56:37;95062.41;;;17.18
34310;BMP280;61664;48.112;11.662;2023-06-14T03:59:04;95077.72;;;17.10
34310;BMP280;61664;48.112;11.662;2023-06-14T04:01:31;95082.84;;;17.13
34310;BMP280;61664;48.112;11.662;2023-06-14T04:04:00;95094.00;;;17.23
34310;BMP280;61664;48.112;11.662;2023-06-14T04:06:28;95088.16;;;17.19
34310;BMP280;61664;48.112;11.662;2023-06-14T04:09:00;95102.25;;;17.31
34310;BMP280;61664;48.112;11.662;2023-06-14T04:11:30;95095.41;;;17.30
34310;BMP280;61664;48.112;11.662;2023-06-14T04:13:58;95095.41;;;17.30
34310;BMP280;61664;48.112;11.662;2023-06-14T04:16:26;95110.44;;;17.44
34310;BMP280;61664;48.112;11.662;2023-06-14T04:18:54;95098.47;;;17.39
34310;BMP280;61664;48.112;11.662;2023-06-14T04:21:22;95112.78;;;17.34
34310;BMP280;61664;48.112;11.662;2023-06-14T04:23:50;95105.03;;;17.25
34310;BMP280;61664;48.112;11.662;2023-06-14T04:26:19;95121.97;;;17.26
34310;BMP280;61664;48.112;11.662;2023-06-14T04:28:50;95114.44;;;17.18
34310;BMP280;61664;48.112;11.662;2023-06-14T04:31:17;95124.44;;;17.24
34310;BMP280;61664;48.112;11.662;2023-06-14T04:33:45;95130.94;;;17.34
34310;BMP280;61664;48.112;11.662;2023-06-14T04:36:13;95132.19;;;17.33
34310;BMP280;61664;48.112;11.662;2023-06-14T04:38:44;95125.91;;;17.25
34310;BMP280;61664;48.112;11.662;2023-06-14T04:41:15;95119.97;;;17.26
34310;BMP280;61664;48.112;11.662;2023-06-14T04:43:42;95112.81;;;17.29
34310;BMP280;61664;48.112;11.662;2023-06-14T04:46:09;95123.25;;;17.38
34310;BMP280;61664;48.112;11.662;2023-06-14T04:48:41;95125.75;;;17.36
34310;BMP280;61664;48.112;11.662;2023-06-14T04:51:09;95119.09;;;17.37
34310;BMP280;61664;48.112;11.662;2023-06-14T04:53:36;95131.59;;;17.58
34310;BMP280;61664;48.112;11.662;2023-06-14T04:56:04;95129.56;;;17.65
34310;BMP280;61664;48.112;11.662;2023-06-14T04:58:31;95122.38;;;17.67
34310;BMP280;61664;48.112;11.662;2023-06-14T05:00:59;95140.91;;;17.76
34310;BMP280;61664;48.112;11.662;2023-06-14T05:03:26;95135.53;;;17.76
34310;BMP280;61664;48.112;11.662;2023-06-14T05:05:54;95136.56;;;17.73
34310;BMP280;61664;48.112;11.662;2023-06-14T05:08:21;95127.91;;;17.75
34310;BMP280;61664;48.112;11.662;2023-06-14T05:10:51;95143.91;;;17.91
34310;BMP280;61664;48.112;11.662;2023-06-14T05:13:18;95140.50;;;18.04
34310;BMP280;61664;48.112;11.662;2023-06-14T05:15:45;95138.06;;;18.19
34310;BMP280;61664;48.112;11.662;2023-06-14T05:18:12;95146.44;;;18.34
34310;BMP280;61664;48.112;11.662;2023-06-14T05:20:41;95147.19;;;18.48
34310;BMP280;61664;48.112;11.662;2023-06-14T05:23:09;95132.19;;;18.47
34310;BMP280;61664;48.112;11.662;2023-06-14T05:25:45;95144.06;;;18.57
34310;BMP280;61664;48.112;11.662;2023-06-14T05:28:13;95144.28;;;18.59
34310;BMP280;61664;48.112;11.662;2023-06-14T05:30:40;95154.69;;;18.68
34310;BMP280;61664;48.112;11.662;2023-06-14T05:33:07;95144.50;;;18.75
34310;BMP280;61664;48.112;11.662;2023-06-14T05:35:35;95150.44;;;18.86
34310;BMP280;61664;48.112;11.662;2023-06-14T05:38:01;95151.06;;;19.05
34310;BMP280;61664;48.112;11.662;2023-06-14T05:40:28;95150.66;;;19.15
34310;BMP280;61664;48.112;11.662;2023-06-14T05:42:55;95161.16;;;19.18
34310;BMP280;61664;48.112;11.662;2023-06-14T05:45:22;95151.78;;;19.19
34310;BMP280;61664;48.112;11.662;2023-06-14T05:47:49;95158.44;;;19.31
34310;BMP280;61664;48.112;11.662;2023-06-14T05:50:17;95153.75;;;19.32
34310;BMP280;61664;48.112;11.662;2023-06-14T05:52:44;95153.81;;;19.39
34310;BMP280;61664;48.112;11.662;2023-06-14T05:55:11;95153.63;;;19.51
34310;BMP280;61664;48.112;11.662;2023-06-14T05:57:40;95136.09;;;19.52
34310;BMP280;61664;48.112;11.662;2023-06-14T06:00:08;95156.13;;;19.69
34310;BMP280;61664;48.112;11.662;2023-06-14T06:02:44;95154.78;;;19.76
34310;BMP280;61664;48.112;11.662;2023-06-14T06:05:12;95153.25;;;19.88
34310;BMP280;61664;48.112;11.662;2023-06-14T06:07:40;95146.66;;;19.97
34310;BMP280;61664;48.112;11.662;2023-06-14T06:10:08;95145.47;;;20.05
34310;BMP280;61664;48.112;11.662;2023-06-14T06:12:35;95162.59;;;20.21
34310;BMP280;61664;48.112;11.662;2023-06-14T06:15:02;95171.38;;;20.35
34310;BMP280;61664;48.112;11.662;2023-06-14T06:17:30;95156.56;;;20.36
34310;BMP280;61664;48.112;11.662;2023-06-14T06:20:16;95155.91;;;20.43
34310;BMP280;61664;48.112;11.662;2023-06-14T06:22:44;95161.72;;;20.47
34310;BMP280;61664;48.112;11.662;2023-06-14T06:25:11;95171.00;;;20.59
34310;BMP280;61664;48.112;11.662;2023-06-14T06:27:38;95175.59;;;20.64
34310;BMP280;61664;48.112;11.662;2023-06-14T06:30:07;95172.56;;;20.75
34310;BMP280;61664;48.112;11.662;2023-06-14T06:32:34;95171.50;;;20.78
34310;BMP280;61664;48.112;11.662;2023-06-14T06:35:01;95182.28;;;20.91
34310;BMP280;61664;48.112;11.662;2023-06-14T06:37:28;95170.34;;;20.94
34310;BMP280;61664;48.112;11.662;2023-06-14T06:39:56;95177.09;;;21.09
34310;BMP280;61664;48.112;11.662;2023-06-14T06:42:24;95181.53;;;21.19
34310;BMP280;61664;48.112;11.662;2023-06-14T06:44:51;95185.03;;;21.35
34310;BMP280;61664;48.112;11.662;2023-06-14T06:47:18;95185.25;;;21.44
34310;BMP280;61664;48.112;11.662;2023-06-14T06:49:45;95183.81;;;21.51
34310;BMP280;61664;48.112;11.662;2023-06-14T06:52:12;95166.25;;;21.52
34310;BMP280;61664;48.112;11.662;2023-06-14T06:54:39;95177.53;;;21.71
34310;BMP280;61664;48.112;11.662;2023-06-14T06:57:06;95184.44;;;21.88
34310;BMP280;61664;48.112;11.662;2023-06-14T06:59:35;95173.94;;;21.92
34310;BMP280;61664;48.112;11.662;2023-06-14T07:02:03;95195.72;;;22.07
34310;BMP280;61664;48.112;11.662;2023-06-14T07:04:30;95183.38;;;22.13
34310;BMP280;61664;48.112;11.662;2023-06-14T07:06:58;95180.13;;;22.15
34310;BMP280;61664;48.112;11.662;2023-06-14T07:09:24;95191.03;;;22.30
34310;BMP280;61664;48.112;11.662;2023-06-14T07:11:52;95190.66;;;22.41
34310;BMP280;61664;48.112;11.662;2023-06-14T07:14:19;95186.47;;;22.40
34310;BMP280;61664;48.112;11.662;2023-06-14T07:16:46;95191.72;;;22.53
34310;BMP280;61664;48.112;11.662;2023-06-14T07:19:13;95188.78;;;22.66
34310;BMP280;61664;48.112;11.662;2023-06-14T07:21:40;95187.34;;;22.65
34310;BMP280;61664;48.112;11.662;2023-06-14T07:24:07;95186.25;;;22.69
34310;BMP280;61664;48.112;11.662;2023-06-14T07:26:35;95205.84;;;22.75
34310;BMP280;61664;48.112;11.662;2023-06-14T07:29:02;95208.03;;;22.84
34310;BMP280;61664;48.112;11.662;2023-06-14T07:31:29;95204.38;;;22.89
34310;BMP280;61664;48.112;11.662;2023-06-14T07:33:56;95202.56;;;22.91
34310;BMP280;61664;48.112;11.662;2023-06-14T07:36:23;95207.22;;;23.06
34310;BMP280;61664;48.112;11.662;2023-06-14T07:38:50;95197.78;;;23.15
34310;BMP280;61664;48.112;11.662;2023-06-14T07:41:17;95209.53;;;23.32
34310;BMP280;61664;48.112;11.662;2023-06-14T07:43:44;95205.31;;;23.39
34310;BMP280;61664;48.112;11.662;2023-06-14T07:46:11;95205.78;;;23.53
34310;BMP280;61664;48.112;11.662;2023-06-14T07:48:38;95211.16;;;23.68
34310;BMP280;61664;48.112;11.662;2023-06-14T07:51:05;95219.66;;;23.79
34310;BMP280;61664;48.112;11.662;2023-06-14T07:53:32;95214.13;;;23.87
34310;BMP280;61664;48.112;11.662;2023-06-14T07:55:59;95215.88;;;24.00
34310;BMP280;61664;48.112;11.662;2023-06-14T07:58:26;95203.63;;;24.08
34310;BMP280;61664;48.112;11.662;2023-06-14T08:00:53;95204.78;;;24.22
34310;BMP280;61664;48.112;11.662;2023-06-14T08:03:20;95206.19;;;24.31
34310;BMP280;61664;48.112;11.662;2023-06-14T08:05:49;95201.94;;;24.38
34310;BMP280;61664;48.112;11.662;2023-06-14T08:08:17;95203.56;;;24.41
34310;BMP280;61664;48.112;11.662;2023-06-14T08:10:44;95208.56;;;24.52
34310;BMP280;61664;48.112;11.662;2023-06-14T08:13:11;95204.84;;;24.57
34310;BMP280;61664;48.112;11.662;2023-06-14T08:15:38;95208.38;;;24.67
34310;BMP280;61664;48.112;11.662;2023-06-14T08:18:05;95204.31;;;24.76
34310;BMP280;61664;48.112;11.662;2023-06-14T08:20:32;95204.97;;;24.84
34310;BMP280;61664;48.112;11.662;2023-06-14T08:23:03;95196.53;;;24.89
34310;BMP280;61664;48.112;11.662;2023-06-14T08:25:30;95209.84;;;25.02
34310;BMP280;61664;48.112;11.662;2023-06-14T08:27:59;95208.16;;;25.07
34310;BMP280;61664;48.112;11.662;2023-06-14T08:30:26;95225.25;;;25.25
34310;BMP280;61664;48.112;11.662;2023-06-14T08:32:53;95227.81;;;25.40
34310;BMP280;61664;48.112;11.662;2023-06-14T08:35:41;95221.25;;;25.52
34310;BMP280;61664;48.112;11.662;2023-06-14T08:38:08;95232.31;;;25.72
34310;BMP280;61664;48.112;11.662;2023-06-14T08:40:37;95220.41;;;25.86
34310;BMP280;61664;48.112;11.662;2023-06-14T08:43:07;95224.84;;;26.09
34310;BMP280;61664;48.112;11.662;2023-06-14T08:45:34;95220.88;;;26.48
34310;BMP280;61664;48.112;11.662;2023-06-14T08:48:02;95232.25;;;27.50
34310;BMP280;61664;48.112;11.662;2023-06-14T08:50:31;95220.44;;;28.94
34310;BMP280;61664;48.112;11.662;2023-06-14T08:53:01;95227.81;;;30.78
34310;BMP280;61664;48.112;11.662;2023-06-14T08:55:31;95218.03;;;32.50
34310;BMP280;61664;48.112;11.662;2023-06-14T08:58:03;95223.75;;;34.26
34310;BMP280;61664;48.112;11.662;2023-06-14T09:00:31;95221.63;;;35.54
34310;BMP280;61664;48.112;11.662;2023-06-14T09:03:01;95225.09;;;36.38
34310;BMP280;61664;48.112;11.662;2023-06-14T09:05:28;95227.13;;;37.30
34310;BMP280;61664;48.112;11.662;2023-06-14T09:07:55;95218.13;;;37.85
34310;BMP280;61664;48.112;11.662;2023-06-14T09:10:32;95217.63;;;38.22
34310;BMP280;61664;48.112;11.662;2023-06-14T09:13:05;95234.94;;;38.78
34310;BMP280;61664;48.112;11.662;2023-06-14T09:15:34;95228.03;;;39.53
34310;BMP280;61664;48.112;11.662;2023-06-14T09:18:02;95226.41;;;40.26
34310;BMP280;61664;48.112;11.662;2023-06-14T09:20:30;95225.41;;;40.53
34310;BMP280;61664;48.112;11.662;2023-06-14T09:22:59;95224.53;;;40.40
34310;BMP280;61664;48.112;11.662;2023-06-14T09:25:29;95231.88;;;40.15
34310;BMP280;61664;48.112;11.662;2023-06-14T09:28:09;95234.47;;;40.03
34310;BMP280;61664;48.112;11.662;2023-06-14T09:30:38;95241.13;;;39.82
34310;BMP280;61664;48.112;11.662;2023-06-14T09:33:05;95239.53;;;38.64
34310;BMP280;61664;48.112;11.662;2023-06-14T09:35:32;95235.56;;;37.08
34310;BMP280;61664;48.112;11.662;2023-06-14T09:38:00;95257.06;;;35.95
34310;BMP280;61664;48.112;11.662;2023-06-14T09:40:27;95240.84;;;34.91
34310;BMP280;61664;48.112;11.662;2023-06-14T09:42:54;95252.31;;;34.13
34310;BMP280;61664;48.112;11.662;2023-06-14T09:45:26;95250.53;;;33.71
34310;BMP280;61664;48.112;11.662;2023-06-14T09:47:58;95252.28;;;33.95
34310;BMP280;61664;48.112;11.662;2023-06-14T09:50:27;95250.47;;;34.71
34310;BMP280;61664;48.112;11.662;2023-06-14T09:53:07;95257.91;;;36.00
34310;BMP280;61664;48.112;11.662;2023-06-14T09:55:36;95250.66;;;36.32
34310;BMP280;61664;48.112;11.662;2023-06-14T09:58:06;95256.34;;;35.73
34310;BMP280;61664;48.112;11.662;2023-06-14T10:00:35;95261.34;;;35.20
34310;BMP280;61664;48.112;11.662;2023-06-14T10:03:29;95250.84;;;35.55
34310;BMP280;61664;48.112;11.662;2023-06-14T10:06:17;95252.59;;;35.86
34310;BMP280;61664;48.112;11.662;2023-06-14T10:08:45;95243.72;;;35.50
34310;BMP280;61664;48.112;11.662;2023-06-14T10:11:13;95242.53;;;34.81
34310;BMP280;61664;48.112;11.662;2023-06-14T10:13:40;95242.56;;;34.12
34310;BMP280;61664;48.112;11.662;2023-06-14T10:16:21;95242.97;;;34.04
34310;BMP280;61664;48.112;11.662;2023-06-14T10:18:59;95252.28;;;34.82
34310;BMP280;61664;48.112;11.662;2023-06-14T10:24:34;95251.28;;;35.68
34310;BMP280;61664;48.112;11.662;2023-06-14T10:27:06;95248.06;;;34.98
34310;BMP280;61664;48.112;11.662;2023-06-14T10:30:09;95244.00;;;34.13
34310;BMP280;61664;48.112;11.662;2023-06-14T10:33:07;95250.91;;;33.47
34310;BMP280;61664;48.112;11.662;2023-06-14T10:35:34;95239.06;;;33.00
34310;BMP280;61664;48.112;11.662;2023-06-14T10:38:12;95230.00;;;32.55
34310;BMP280;61664;48.112;11.662;2023-06-14T10:40:40;95243.78;;;32.25
34310;BMP280;61664;48.112;11.662;2023-06-14T10:43:24;95236.94;;;32.13
34310;BMP280;61664;48.112;11.662;2023-06-14T10:46:14;95239.63;;;33.28
34310;BMP280;61664;48.112;11.662;2023-06-14T10:48:42;95230.50;;;34.74
34310;BMP280;61664;48.112;11.662;2023-06-14T10:51:20;95233.16;;;36.51
34310;BMP280;61664;48.112;11.662;2023-06-14T10:53:50;95232.44;;;37.71
34310;BMP280;61664;48.112;11.662;2023-06-14T10:56:30;95226.13;;;37.71
34310;BMP280;61664;48.112;11.662;2023-06-14T10:58:58;95242.97;;;37.00
34310;BMP280;61664;48.112;11.662;2023-06-14T11:01:44;95235.63;;;36.41
34310;BMP280;61664;48.112;11.662;2023-06-14T11:04:20;95243.03;;;37.02
34310;BMP280;61664;48.112;11.662;2023-06-14T11:06:50;95231.88;;;37.79
34310;BMP280;61664;48.112;11.662;2023-06-14T11:09:47;95235.59;;;38.45
34310;BMP280;61664;48.112;11.662;2023-06-14T11:12:18;95237.81;;;38.21
34310;BMP280;61664;48.112;11.662;2023-06-14T11:14:48;95236.31;;;38.46
34310;BMP280;61664;48.112;11.662;2023-06-14T11:17:15;95233.59;;;39.15
34310;BMP280;61664;48.112;11.662;2023-06-14T11:19:42;95238.50;;;39.92
34310;BMP280;61664;48.112;11.662;2023-06-14T11:22:10;95237.69;;;40.30
34310;BMP280;61664;48.112;11.662;2023-06-14T11:24:37;95234.63;;;40.11
34310;BMP280;61664;48.112;11.662;2023-06-14T11:27:06;95222.09;;;39.73
34310;BMP280;61664;48.112;11.662;2023-06-14T11:29:35;95231.44;;;39.49
34310;BMP280;61664;48.112;11.662;2023-06-14T11:32:02;95236.13;;;39.01
34310;BMP280;61664;48.112;11.662;2023-06-14T11:34:30;95225.56;;;38.34
34310;BMP280;61664;48.112;11.662;2023-06-14T11:36:57;95233.84;;;37.72
34310;BMP280;61664;48.112;11.662;2023-06-14T11:39:24;95235.84;;;37.18
34310;BMP280;61664;48.112;11.662;2023-06-14T11:41:52;95234.13;;;36.60
34310;BMP280;61664;48.112;11.662;2023-06-14T11:44:19;95229.56;;;36.03
34310;BMP280;61664;48.112;11.662;2023-06-14T11:46:46;95222.34;;;35.35
34310;BMP280;61664;48.112;11.662;2023-06-14T11:49:13;95224.13;;;34.89
34310;BMP280;61664;48.112;11.662;2023-06-14T11:51:42;95204.81;;;34.38
34310;BMP280;61664;48.112;11.662;2023-06-14T11:54:09;95200.00;;;33.88
34310;BMP280;61664;48.112;11.662;2023-06-14T11:56:37;95208.63;;;33.63
34310;BMP280;61664;48.112;11.662;2023-06-14T11:59:04;95224.38;;;33.42
34310;BMP280;61664;48.112;11.662;2023-06-14T12:01:36;95214.25;;;33.18
34310;BMP280;61664;48.112;11.662;2023-06-14T12:04:05;95223.16;;;33.00
34310;BMP280;61664;48.112;11.662;2023-06-14T12:06:32;95227.53;;;32.90
34310;BMP280;61664;48.112;11.662;2023-06-14T12:09:06;95225.69;;;32.81
34310;BMP280;61664;48.112;11.662;2023-06-14T12:11:39;95223.56;;;32.79
34310;BMP280;61664;48.112;11.662;2023-06-14T12:14:07;95230.22;;;32.88
34310;BMP280;61664;48.112;11.662;2023-06-14T12:16:38;95208.47;;;32.96
34310;BMP280;61664;48.112;11.662;2023-06-14T12:19:26;95218.03;;;33.24
34310;BMP280;61664;48.112;11.662;2023-06-14T12:21:53;95217.13;;;33.35
34310;BMP280;61664;48.112;11.662;2023-06-14T12:24:20;95223.44;;;33.22
34310;BMP280;61664;48.112;11.662;2023-06-14T12:26:47;95221.81;;;33.01
34310;BMP280;61664;48.112;11.662;2023-06-14T12:29:14;95202.97;;;32.82
34310;BMP280;61664;48.112;11.662;2023-06-14T12:31:41;95211.72;;;32.77
34310;BMP280;61664;48.112;11.662;2023-06-14T12:34:08;95207.31;;;32.72
34310;BMP280;61664;48.112;11.662;2023-06-14T12:36:35;95209.03;;;32.79
34310;BMP280;61664;48.112;11.662;2023-06-14T12:39:07;95212.25;;;32.89
34310;BMP280;61664;48.112;11.662;2023-06-14T12:41:35;95204.06;;;32.91
34310;BMP280;61664;48.112;11.662;2023-06-14T12:44:04;95209.22;;;32.83
34310;BMP280;61664;48.112;11.662;2023-06-14T12:46:31;95206.72;;;32.89
34310;BMP280;61664;48.112;11.662;2023-06-14T12:48:59;95207.28;;;32.85
34310;BMP280;61664;48.112;11.662;2023-06-14T12:51:26;95210.03;;;32.85
34310;BMP280;61664;48.112;11.662;2023-06-14T12:53:53;95212.22;;;32.73
34310;BMP280;61664;48.112;11.662;2023-06-14T12:56:20;95202.72;;;32.63
34310;BMP280;61664;48.112;11.662;2023-06-14T12:58:50;95214.50;;;32.63
34310;BMP280;61664;48.112;11.662;2023-06-14T13:01:18;95214.09;;;32.69
34310;BMP280;61664;48.112;11.662;2023-06-14T13:03:48;95212.19;;;32.58
34310;BMP280;61664;48.112;11.662;2023-06-14T13:06:17;95224.38;;;32.52
34310;BMP280;61664;48.112;11.662;2023-06-14T13:08:45;95220.50;;;32.44
34310;BMP280;61664;48.112;11.662;2023-06-14T13:11:11;95210.31;;;32.33
34310;BMP280;61664;48.112;11.662;2023-06-14T13:13:38;95226.56;;;32.40
34310;BMP280;61664;48.112;11.662;2023-06-14T13:16:06;95222.69;;;32.45
34310;BMP280;61664;48.112;11.662;2023-06-14T13:18:33;95219.47;;;32.51
34310;BMP280;61664;48.112;11.662;2023-06-14T13:21:00;95214.13;;;32.55
34310;BMP280;61664;48.112;11.662;2023-06-14T13:23:31;95218.59;;;32.62
34310;BMP280;61664;48.112;11.662;2023-06-14T13:25:57;95216.06;;;32.82
34310;BMP280;61664;48.112;11.662;2023-06-14T13:28:28;95215.94;;;33.09
34310;BMP280;61664;48.112;11.662;2023-06-14T13:30:56;95212.28;;;33.20
34310;BMP280;61664;48.112;11.662;2023-06-14T13:33:23;95222.84;;;33.55
34310;BMP280;61664;48.112;11.662;2023-06-14T13:35:51;95210.47;;;34.07
34310;BMP280;61664;48.112;11.662;2023-06-14T13:38:19;95215.13;;;34.71
34310;BMP280;61664;48.112;11.662;2023-06-14T13:40:46;95203.19;;;35.43
34310;BMP280;61664;48.112;11.662;2023-06-14T13:43:13;95210.03;;;36.45
34310;BMP280;61664;48.112;11.662;2023-06-14T13:45:40;95206.84;;;37.28
34310;BMP280;61664;48.112;11.662;2023-06-14T13:48:07;95200.38;;;37.72
34310;BMP280;61664;48.112;11.662;2023-06-14T13:50:34;95207.97;;;37.98
34310;BMP280;61664;48.112;11.662;2023-06-14T13:53:01;95202.38;;;38.57
34310;BMP280;61664;48.112;11.662;2023-06-14T13:55:28;95191.22;;;39.29
34310;BMP280;61664;48.112;11.662;2023-06-14T13:57:55;95185.66;;;40.12
34310;BMP280;61664;48.112;11.662;2023-06-14T14:00:31;95207.97;;;41.16
34310;BMP280;61664;48.112;11.662;2023-06-14T14:02:58;95213.66;;;42.05
34310;BMP280;61664;48.112;11.662;2023-06-14T14:05:26;95199.22;;;42.50
34310;BMP280;61664;48.112;11.662;2023-06-14T14:07:56;95199.38;;;42.99
34310;BMP280;61664;48.112;11.662;2023-06-14T14:10:24;95210.69;;;43.55
34310;BMP280;61664;48.112;11.662;2023-06-14T14:12:54;95202.19;;;44.10
34310;BMP280;61664;48.112;11.662;2023-06-14T14:15:21;95206.28;;;44.55
34310;BMP280;61664;48.112;11.662;2023-06-14T14:17:48;95201.81;;;45.02